Terminal Aerodrome Forecast
Issued by NWS Denver/Boulder, CO

Home | Current Version | Previous Version | Text Only | Print | Product List | Glossary On
Versions: 1 2 3 4 5 6 7 8 9 10 11 12 13 14 15 16 17 18 19 20 21 22 23 24 25 26 27 28 29 30 31 32 33 34 35 36 37 38 39
000
FTUS45 KBOU 060902 AAB
TAFDEN
TAF AMD
KDEN 060902Z 0609/0712 12007KT P6SM FEW120
     FM061200 16008KT P6SM SCT120
     FM061700 12012KT P6SM SCT050 BKN100
     FM062200 10012KT P6SM VCSH SCT025 OVC050
     FM070000 07010KT 2SM -SN BR SCT005 OVC010
     FM070300 03008KT 3/4SM -SN BR SCT003 OVC005
     FM070900 01007KT 3SM -SN BR SCT005 OVC010=

USA.gov is the U.S. government's official web portal to all federal, state and local government web resources and services.